Time;durP1;ratioP1;P1;durP2;ratioP2;P2;SDS_P1;SDS_P2;PMS_P1;PMS_P2;Temp;Humidity;BMP_temperature;BMP_pressure;BME280_temperature;BME280_humidity;BME280_pressure;Samples;Min_cycle;Max_cycle;Signal;HPM_P1;HPM_P2
2024/01/27 00:04:00;;;;;;;;;;;;;;;-0.97;73.70;98219.59;10326867;28;20084;-57
2024/01/27 00:08:59;;;;;;;79.07;46.33;;;;;;;-1.01;73.57;98218.53;10325509;28;19909;-57
2024/01/27 00:13:59;;;;;;;107.65;57.35;;;;;;;-0.96;74.62;98236.63;10324937;28;20087;-55
2024/01/27 00:18:58;;;;;;;73.93;42.30;;;;;;;-1.09;74.12;98202.00;10324817;28;20077;-55
2024/01/27 00:24:00;;;;;;;67.70;39.03;;;;;;;-1.25;74.40;98172.31;10324512;28;20104;-55
2024/01/27 00:28:59;;;;;;;70.45;42.10;;;;;;;-2.34;74.04;98036.81;10324387;28;20083;-57
2024/01/27 00:33:58;;;;;;;80.63;44.00;;;;;;;-1.45;74.87;98174.69;10324587;28;20042;-57
2024/01/27 00:38:57;;;;;;;72.65;41.13;;;;;;;-1.41;74.92;98201.19;10325165;28;20112;-55
2024/01/27 00:43:56;;;;;;;75.15;41.05;;;;;;;-1.39;75.38;98191.09;10325153;28;20083;-55
2024/01/27 00:48:55;;;;;;;69.40;40.63;;;;;;;-1.50;75.57;98155.75;10324340;28;20025;-55
2024/01/27 00:53:54;;;;;;;100.03;53.65;;;;;;;-1.35;75.57;98158.25;10325156;28;20108;-55
2024/01/27 00:58:53;;;;;;;100.88;54.15;;;;;;;-1.33;76.09;98149.03;10324372;28;20503;-55
2024/01/27 01:03:52;;;;;;;98.55;51.08;;;;;;;-1.30;76.08;98133.91;10323957;28;20050;-55
2024/01/27 01:08:51;;;;;;;106.50;57.90;;;;;;;-1.14;75.80;98170.31;10324690;28;20069;-55
2024/01/27 01:13:50;;;;;;;112.28;61.47;;;;;;;-1.27;76.51;98162.03;10322135;28;20060;-55
2024/01/27 01:18:50;;;;;;;143.43;66.85;;;;;;;-1.23;76.60;98158.88;10324759;28;20565;-55
2024/01/27 01:23:49;;;;;;;114.13;56.10;;;;;;;-2.35;76.23;97944.47;10324463;28;20895;-55
2024/01/27 01:28:48;;;;;;;99.15;53.22;;;;;;;-1.18;76.42;98158.25;10321414;28;20215;-55
2024/01/27 01:33:47;;;;;;;139.43;70.07;;;;;;;-1.26;75.81;98161.25;10323387;28;20054;-55
2024/01/27 01:38:46;;;;;;;126.50;62.15;;;;;;;-1.34;76.73;98147.25;10323380;28;20069;-56
2024/01/27 01:43:45;;;;;;;154.27;76.88;;;;;;;-1.41;75.87;98122.28;10323395;28;20064;-56
2024/01/27 01:48:44;;;;;;;124.30;62.33;;;;;;;-3.17;76.08;97874.91;10323140;28;20029;-56
2024/01/27 01:53:45;;;;;;;;;;;;;;;-1.08;75.92;98175.72;10323786;28;20520;-56
2024/01/27 01:58:44;;;;;;;60.92;33.08;;;;;;;-1.35;76.11;98153.16;10305991;28;19974;-56
2024/01/27 02:03:57;;;;;;;44.08;28.90;;;;;;;-1.30;77.31;98168.66;10322931;28;20085;-56
2024/01/27 02:08:56;;;;;;;55.08;32.53;;;;;;;-1.61;77.21;98084.72;10323083;28;20517;-56
2024/01/27 02:13:55;;;;;;;60.00;34.20;;;;;;;-1.34;77.13;98098.88;10323167;28;20080;-56
2024/01/27 02:18:54;;;;;;;78.90;42.25;;;;;;;-1.54;76.60;98062.25;10304435;28;20123;-56
2024/01/27 02:23:53;;;;;;;69.07;39.10;;;;;;;-1.25;76.61;98089.16;10322979;28;20030;-56
2024/01/27 02:28:52;;;;;;;48.83;29.13;;;;;;;-1.75;76.36;98007.69;10331214;28;20053;-56
2024/01/27 02:33:51;;;;;;;53.85;33.00;;;;;;;-1.85;77.96;98050.47;10330716;28;20025;-56
2024/01/27 02:38:50;;;;;;;65.35;35.50;;;;;;;-1.53;77.51;98083.47;10330296;28;20079;-56
2024/01/27 02:43:48;;;;;;;71.90;40.88;;;;;;;-1.44;77.40;98068.69;10330460;28;20109;-56
2024/01/27 02:48:47;;;;;;;68.18;37.70;;;;;;;-1.13;77.47;98091.44;10311997;28;20041;-56
2024/01/27 02:53:46;;;;;;;71.28;36.25;;;;;;;-1.18;76.78;98053.84;10329720;28;20727;-55
2024/01/27 02:58:45;;;;;;;68.15;38.20;;;;;;;-0.79;77.13;98095.66;10329944;28;20080;-55
2024/01/27 03:03:44;;;;;;;67.35;36.50;;;;;;;-0.66;76.50;98099.69;10329687;28;20049;-55
2024/01/27 03:08:43;;;;;;;51.10;30.25;;;;;;;-0.62;76.48;98099.03;10329172;28;20117;-55
2024/01/27 03:13:45;;;;;;;53.08;31.25;;;;;;;-1.68;75.87;97895.25;10327664;28;20035;-55
2024/01/27 03:18:44;;;;;;;53.63;31.15;;;;;;;-0.61;76.30;98090.59;10327270;28;20065;-55
2024/01/27 03:23:43;;;;;;;46.10;27.55;;;;;;;-0.50;76.49;98098.75;10326964;28;20044;-55
2024/01/27 03:28:41;;;;;;;50.38;29.10;;;;;;;-0.68;76.00;98088.53;10328532;28;20491;-55
2024/01/27 03:33:40;;;;;;;45.38;28.63;;;;;;;-0.85;76.24;98022.34;10328319;28;20886;-57
2024/01/27 03:38:43;;;;;;;46.95;28.23;;;;;;;-0.37;76.01;98099.41;10327276;28;20471;-55
2024/01/27 03:43:42;;;;;;;46.60;30.02;;;;;;;-0.83;75.87;97997.81;10328607;28;20069;-55
2024/01/27 03:48:41;;;;;;;56.00;32.42;;;;;;;-0.46;75.49;98047.09;10327978;28;20112;-56
2024/01/27 03:53:40;;;;;;;58.72;36.15;;;;;;;-0.17;75.66;98051.88;10327606;28;20506;-56
2024/01/27 03:58:39;;;;;;;58.97;36.10;;;;;;;-0.31;75.03;98001.91;10327365;28;20049;-56
2024/01/27 04:03:38;;;;;;;54.10;33.92;;;;;;;-0.12;74.35;98010.41;10327175;28;20085;-56
2024/01/27 04:08:37;;;;;;;51.33;33.10;;;;;;;-0.37;74.68;97961.72;10327000;28;20076;-56
2024/01/27 04:13:37;;;;;;;59.42;34.83;;;;;;;0.16;74.39;98049.09;10326788;28;20040;-56
2024/01/27 04:18:38;;;;;;;62.47;36.97;;;;;;;-0.14;74.04;97979.72;10326401;28;20479;-57
2024/01/27 04:23:37;;;;;;;57.70;34.15;;;;;;;0.38;73.91;98043.28;10326022;28;20061;-57
2024/01/27 04:28:36;;;;;;;59.58;32.67;;;;;;;0.23;73.84;97986.44;10326669;28;20036;-57
2024/01/27 04:33:35;;;;;;;63.17;36.10;;;;;;;0.61;73.66;98025.50;10326120;28;20069;-56
2024/01/27 04:38:34;;;;;;;57.75;37.28;;;;;;;0.65;73.39;98022.25;10325817;28;20116;-56
2024/01/27 04:43:33;;;;;;;55.80;35.05;;;;;;;0.37;73.09;97964.91;10326329;28;20041;-56
2024/01/27 04:48:32;;;;;;;70.13;41.42;;;;;;;0.73;73.07;98032.78;10324525;28;20108;-56
2024/01/27 04:53:31;;;;;;;74.38;45.05;;;;;;;0.84;73.68;98040.09;10325083;28;20079;-56
2024/01/27 04:58:30;;;;;;;84.57;48.35;;;;;;;0.54;73.81;97987.75;10323641;28;20029;-56
2024/01/27 05:03:29;;;;;;;72.57;41.40;;;;;;;0.25;74.47;97975.50;10305807;28;20128;-56
2024/01/27 05:08:28;;;;;;;58.22;35.05;;;;;;;0.27;75.18;97998.53;10306829;28;20037;-56
2024/01/27 05:13:27;;;;;;;63.78;35.75;;;;;;;0.32;75.62;98032.78;10324578;28;20112;-56
2024/01/27 05:18:26;;;;;;;55.42;33.95;;;;;;;0.09;75.88;97972.22;10324135;28;20048;-56
2024/01/27 05:23:25;;;;;;;55.28;33.20;;;;;;;0.64;76.13;98036.72;10324221;28;20401;-56
2024/01/27 05:28:25;;;;;;;45.13;28.90;;;;;;;0.89;76.62;98051.38;10323364;28;20069;-56
2024/01/27 05:33:23;;;;;;;;;;;;;;;1.07;77.14;98064.06;10325243;28;20462;-56
2024/01/27 05:38:22;;;;;;;53.38;31.73;;;;;;;0.64;76.43;97970.31;10323680;28;20290;-56
2024/01/27 05:43:22;;;;;;;58.10;37.70;;;;;;;1.21;77.17;98056.94;10323484;28;20043;-56
2024/01/27 05:48:21;;;;;;;90.68;52.67;;;;;;;1.16;77.14;98058.44;10324274;28;20065;-56
2024/01/27 05:53:20;;;;;;;79.15;47.33;;;;;;;1.23;77.68;98080.91;10323418;28;20106;-56
2024/01/27 05:58:22;;;;;;;85.97;51.13;;;;;;;1.07;77.58;98012.06;10322673;28;20076;-56
2024/01/27 06:03:21;;;;;;;83.93;49.95;;;;;;;1.40;78.19;98040.66;10323312;28;20073;-56
2024/01/27 06:08:20;;;;;;;87.47;51.38;;;;;;;1.01;78.56;97940.25;10323367;28;20026;-56
2024/01/27 06:13:19;;;;;;;72.57;47.33;;;;;;;-0.47;78.63;97686.78;10322834;28;20065;-55
2024/01/27 06:18:18;;;;;;;77.32;47.95;;;;;;;1.71;79.02;98040.16;10323242;28;20036;-55
2024/01/27 06:23:17;;;;;;;83.60;49.58;;;;;;;1.62;79.31;98039.81;10344172;28;20037;-55
2024/01/27 06:28:16;;;;;;;98.85;63.05;;;;;;;1.28;80.06;98001.81;10363664;28;20021;-55
2024/01/27 06:33:15;;;;;;;212.48;111.30;;;;;;;1.52;80.17;98035.16;10350742;28;20037;-56
2024/01/27 06:38:14;;;;;;;123.13;73.32;;;;;;;1.64;80.22;98056.06;10321816;28;20441;-55
2024/01/27 06:43:13;;;;;;;94.60;58.78;;;;;;;1.62;80.91;98065.41;10320710;28;20773;-57
2024/01/27 06:48:12;;;;;;;89.45;55.75;;;;;;;1.50;81.23;98065.75;10320490;28;20068;-55
2024/01/27 06:53:11;;;;;;;92.50;58.53;;;;;;;1.78;81.36;98061.72;10320296;28;20073;-56
2024/01/27 06:58:10;;;;;;;90.07;59.17;;;;;;;1.79;80.96;98042.16;10321406;28;20038;-56
2024/01/27 07:03:09;;;;;;;116.75;67.57;;;;;;;1.90;80.94;98016.16;10322658;28;20084;-56
2024/01/27 07:08:08;;;;;;;144.90;89.25;;;;;;;2.25;80.65;98028.47;10322258;28;20112;-55
2024/01/27 07:13:07;;;;;;;;;;;;;;;1.17;81.28;97855.69;10327806;28;20219;-56
2024/01/27 07:18:07;;;;;;;72.65;46.42;;;;;;;2.21;81.26;97980.53;10329435;28;20027;-56
2024/01/27 07:23:06;;;;;;;72.30;44.55;;;;;;;2.30;82.21;97985.97;10328415;28;20073;-56
2024/01/27 07:28:05;;;;;;;67.68;42.55;;;;;;;2.56;81.79;97990.34;10328616;28;20039;-56
2024/01/27 07:33:04;;;;;;;46.97;30.27;;;;;;;2.17;83.30;97911.31;10328750;28;20140;-56
2024/01/27 07:38:03;;;;;;;48.67;29.60;;;;;;;3.07;83.13;98004.81;10328208;28;20065;-56
2024/01/27 07:43:03;;;;;;;42.30;24.48;;;;;;;3.10;82.43;98030.56;10328115;28;20071;-56
2024/01/27 07:48:02;;;;;;;;;;;;;;;3.18;81.96;98064.16;10328645;28;20057;-56
2024/01/27 07:53:01;;;;;;;39.65;25.15;;;;;;;3.36;81.39;98090.41;10327639;28;20345;-56
2024/01/27 07:58:00;;;;;;;13.55;8.90;;;;;;;3.17;79.17;98027.38;10307930;28;20096;-56
2024/01/27 08:02:59;;;;;;;12.18;7.75;;;;;;;3.71;78.23;98098.38;10327278;28;20053;-57
2024/01/27 08:07:57;;;;;;;12.90;8.70;;;;;;;4.00;77.36;98108.66;10326382;28;20128;-56
2024/01/27 08:12:56;;;;;;;10.73;6.47;;;;;;;3.78;75.86;98069.50;10325903;28;20021;-57
2024/01/27 08:17:55;;;;;;;11.15;8.50;;;;;;;3.75;75.41;98010.38;10326820;28;20112;-57
2024/01/27 08:22:54;;;;;;;9.77;7.20;;;;;;;4.51;73.74;98103.31;10295509;28;20061;-57
2024/01/27 08:27:53;;;;;;;8.35;6.80;;;;;;;5.15;73.38;98105.94;10325122;28;20053;-57
2024/01/27 08:32:52;;;;;;;6.55;5.53;;;;;;;4.52;71.22;97932.00;10325733;28;20116;-57
2024/01/27 08:37:51;;;;;;;4.72;4.30;;;;;;;5.89;69.62;98073.44;10325471;28;20503;-58
2024/01/27 08:42:50;;;;;;;5.55;5.10;;;;;;;6.15;68.15;98073.13;10326228;28;20032;-55
2024/01/27 08:47:49;;;;;;;4.53;4.13;;;;;;;6.30;66.25;98047.66;10326958;28;20076;-55
2024/01/27 08:52:48;;;;;;;6.05;4.65;;;;;;;6.55;63.63;98051.63;10323789;28;20112;-55
2024/01/27 08:57:47;;;;;;;5.65;5.10;;;;;;;6.82;61.57;98069.34;10325548;28;20076;-55
2024/01/27 09:02:47;;;;;;;5.22;4.70;;;;;;;6.98;59.84;98028.31;10325347;28;20080;-56
2024/01/27 09:07:46;;;;;;;6.78;6.18;;;;;;;7.40;58.21;98056.59;10324870;28;20061;-55
2024/01/27 09:12:45;;;;;;;6.15;5.55;;;;;;;7.80;56.97;98048.59;10325091;28;20103;-57
2024/01/27 09:17:44;;;;;;;7.88;5.90;;;;;;;7.10;55.73;97868.56;10324790;28;20136;-56
2024/01/27 09:22:44;;;;;;;5.80;5.30;;;;;;;8.07;52.52;98040.38;10324559;28;20104;-55
2024/01/27 09:27:43;;;;;;;7.63;6.93;;;;;;;8.07;51.60;98035.22;10324374;28;20462;-55
2024/01/27 09:32:42;;;;;;;8.88;6.43;;;;;;;8.14;52.04;98002.56;10323445;28;20463;-55
2024/01/27 09:37:43;;;;;;;7.32;6.50;;;;;;;8.49;52.24;98008.16;10324428;28;20087;-55
2024/01/27 09:42:50;;;;;;;6.75;5.88;;;;;;;8.78;51.41;98033.47;10323118;28;20080;-55
2024/01/27 09:47:51;;;;;;;6.50;5.90;;;;;;;8.82;49.90;98038.69;10323937;28;20068;-55
2024/01/27 09:52:50;;;;;;;6.72;6.13;;;;;;;8.33;50.52;98021.75;10323876;28;20491;-55
2024/01/27 09:57:50;;;;;;;6.95;6.25;;;;;;;8.53;50.34;98077.19;10323235;28;20068;-55
2024/01/27 10:02:49;;;;;;;6.20;5.57;;;;;;;8.32;51.10;98088.13;10322972;28;20088;-55
2024/01/27 10:07:48;;;;;;;;;;;;;;;8.17;51.04;98093.06;10323900;28;20759;-55
2024/01/27 10:12:48;;;;;;;6.63;6.03;;;;;;;8.26;51.21;98098.38;10322889;28;20439;-55
2024/01/27 10:17:47;;;;;;;7.25;6.20;;;;;;;8.18;51.43;98084.50;10321769;28;20076;-55
2024/01/27 10:22:46;;;;;;;7.10;6.40;;;;;;;8.28;51.38;98086.34;10321062;28;20033;-55
2024/01/27 10:27:47;;;;;;;7.07;6.13;;;;;;;8.07;51.11;98087.78;10322431;28;20527;-55
2024/01/27 10:33:04;;;;;;;7.32;6.65;;;;;;;7.91;51.74;98070.31;10322477;28;20079;-55
2024/01/27 10:38:03;;;;;;;7.43;6.47;;;;;;;8.00;51.32;98109.22;10322923;28;20065;-55
2024/01/27 10:43:07;;;;;;;9.52;7.30;;;;;;;8.08;51.55;98133.47;10322334;28;20466;-55
2024/01/27 10:48:09;;;;;;;10.43;7.57;;;;;;;8.00;51.98;98141.94;10327690;28;20053;-54
2024/01/27 10:53:17;;;;;;;7.63;6.63;;;;;;;7.90;52.40;98140.94;10330422;28;20061;-55
2024/01/27 10:58:16;;;;;;;10.18;8.10;;;;;;;7.62;52.14;98098.28;10329585;28;20116;-55
2024/01/27 11:03:18;;;;;;;11.82;8.57;;;;;;;8.06;52.50;98166.19;10329903;28;20088;-55
2024/01/27 11:08:19;;;;;;;9.27;7.40;;;;;;;8.03;52.73;98171.28;10329633;28;20061;-55
2024/01/27 11:13:18;;;;;;;10.10;7.80;;;;;;;8.06;52.13;98178.19;10329068;28;20447;-54
2024/01/27 11:18:17;;;;;;;7.63;6.82;;;;;;;8.12;52.07;98173.13;10329283;28;20390;-55
2024/01/27 11:23:16;;;;;;;8.60;7.13;;;;;;;8.31;51.86;98179.47;10350478;28;20053;-56
2024/01/27 11:28:16;;;;;;;13.30;10.27;;;;;;;7.91;51.37;98147.81;10369706;28;20075;-55
2024/01/27 11:33:17;;;;;;;10.45;9.35;;;;;;;7.02;51.17;97981.09;10368806;28;20060;-56
2024/01/27 11:38:15;;;;;;;30.08;22.23;;;;;;;8.19;50.89;98185.31;10369553;28;20067;-57
2024/01/27 11:43:15;;;;;;;22.23;19.80;;;;;;;8.19;50.98;98202.53;10369530;28;20129;-57
2024/01/27 11:48:13;;;;;;;12.77;8.65;;;;;;;8.23;51.34;98202.63;10338966;28;20049;-56
2024/01/27 11:53:12;;;;;;;13.13;11.15;;;;;;;8.21;50.89;98203.44;10327864;28;20033;-56
2024/01/27 11:58:11;;;;;;;31.27;20.70;;;;;;;8.24;49.94;98208.66;10327427;28;20033;-56
2024/01/27 12:03:10;;;;;;;22.65;16.67;;;;;;;8.17;50.32;98191.31;10327367;28;20053;-56
2024/01/27 12:08:09;;;;;;;10.40;8.95;;;;;;;7.91;50.23;98193.47;10326075;28;20498;-57
2024/01/27 12:13:09;;;;;;;6.30;5.75;;;;;;;7.56;49.61;98166.19;10326611;28;20068;-56
2024/01/27 12:18:08;;;;;;;;;;;;;;;8.12;48.89;98203.28;10327184;28;20075;-56
2024/01/27 12:23:07;;;;;;;5.90;5.40;;;;;;;8.12;49.06;98187.78;10347084;28;19992;-56
2024/01/27 12:28:07;;;;;;;;;;;;;;;8.32;49.00;98221.69;10367836;28;20061;-56
2024/01/27 12:33:11;;;;;;;;;;;;;;;8.14;48.01;98225.75;10366146;28;19951;-56
2024/01/27 12:38:10;;;;;;;6.05;5.28;;;;;;;7.78;48.31;98213.06;10366121;28;19969;-56
2024/01/27 12:43:10;;;;;;;4.70;4.50;;;;;;;7.37;48.26;98177.88;10367403;28;20036;-56
2024/01/27 12:48:09;;;;;;;;;;;;;;;7.78;48.46;98234.63;10366151;28;20064;-56
2024/01/27 12:53:08;;;;;;;6.00;5.45;;;;;;;6.90;47.88;98055.72;10366251;28;19909;-56
2024/01/27 12:58:07;;;;;;;4.60;4.30;;;;;;;7.96;47.35;98197.00;10366613;28;20108;-56
2024/01/27 13:03:05;;;;;;;5.20;4.70;;;;;;;8.32;45.26;98203.59;10365264;28;20076;-56
2024/01/27 13:08:05;;;;;;;4.95;4.55;;;;;;;8.73;43.98;98222.31;10365050;28;20137;-56
2024/01/27 13:13:04;;;;;;;;;;;;;;;8.90;43.84;98226.00;10366064;28;20489;-56
2024/01/27 13:18:04;;;;;;;5.07;4.73;;;;;;;8.91;42.81;98225.16;10365519;28;20004;-56
2024/01/27 13:23:03;;;;;;;4.35;4.13;;;;;;;8.50;41.35;98188.34;10364911;28;20067;-55
2024/01/27 13:28:03;;;;;;;5.60;4.35;;;;;;;8.06;39.52;98214.38;10364484;28;20063;-55
2024/01/27 13:33:01;;;;;;;;;;;;;;;8.14;40.51;98233.50;10365659;28;20510;-56
2024/01/27 13:38:00;;;;;;;18.33;12.13;;;;;;;7.96;39.24;98192.69;10346186;28;20362;-56
2024/01/27 13:43:00;;;;;;;5.97;5.57;;;;;;;7.77;38.65;98216.50;10364875;28;20032;-56
2024/01/27 13:47:59;;;;;;;4.65;4.35;;;;;;;7.18;36.35;98236.03;10363983;28;20061;-55
2024/01/27 13:52:58;;;;;;;5.47;5.13;;;;;;;7.20;37.32;98236.94;10363117;28;20040;-56
2024/01/27 13:57:57;;;;;;;4.95;4.70;;;;;;;7.19;39.07;98249.78;10363660;28;20068;-56
2024/01/27 14:02:56;;;;;;;5.20;4.72;;;;;;;6.04;38.35;98118.41;10363362;28;20505;-56
2024/01/27 14:07:55;;;;;;;5.47;5.07;;;;;;;6.85;39.09;98286.94;10363314;28;20033;-56
2024/01/27 14:12:54;;;;;;;6.10;5.60;;;;;;;6.70;38.70;98267.69;10364307;28;20060;-56
2024/01/27 14:17:53;;;;;;;5.72;4.80;;;;;;;6.68;39.86;98276.22;10363668;28;20040;-55
2024/01/27 14:22:52;;;;;;;4.70;4.20;;;;;;;6.71;38.55;98307.25;10363579;28;20072;-56
2024/01/27 14:27:51;;;;;;;5.03;4.70;;;;;;;6.36;39.50;98284.94;10363779;28;20067;-56
2024/01/27 14:32:50;;;;;;;;;;;;;;;6.78;38.76;98322.91;10363964;28;20060;-56
2024/01/27 14:37:49;;;;;;;4.50;4.20;;;;;;;6.39;39.56;98318.53;10363360;28;19920;-56
2024/01/27 14:42:49;;;;;;;5.20;4.68;;;;;;;5.63;39.38;98172.38;10363869;28;20080;-56
2024/01/27 14:47:48;;;;;;;15.25;10.43;;;;;;;6.45;39.25;98342.72;10362819;28;20060;-56
2024/01/27 14:52:47;;;;;;;7.53;6.72;;;;;;;6.02;39.59;98346.75;10363110;28;20051;-56
2024/01/27 14:57:46;;;;;;;4.93;4.45;;;;;;;6.00;39.72;98405.09;10363133;28;20028;-56
2024/01/27 15:02:45;;;;;;;6.05;5.28;;;;;;;5.82;40.45;98385.75;10362921;28;20076;-56
2024/01/27 15:07:46;;;;;;;6.38;5.78;;;;;;;5.79;40.55;98408.84;10362483;28;20056;-54
2024/01/27 15:12:45;;;;;;;18.85;5.35;;;;;;;5.69;40.58;98414.53;10344039;28;20061;-55
2024/01/27 15:17:43;;;;;;;10.15;7.43;;;;;;;5.72;40.13;98355.44;10361221;28;20107;-55
2024/01/27 15:22:42;;;;;;;5.78;5.28;;;;;;;5.87;40.26;98415.06;10361366;28;20037;-55
2024/01/27 15:27:43;;;;;;;7.00;6.32;;;;;;;5.88;40.50;98411.69;10361607;28;20029;-54
2024/01/27 15:32:42;;;;;;;6.82;6.13;;;;;;;5.57;41.00;98398.75;10364351;28;20068;-55
2024/01/27 15:37:41;;;;;;;6.78;6.07;;;;;;;5.64;40.68;98436.72;10368943;28;20033;-55
2024/01/27 15:42:40;;;;;;;6.07;5.53;;;;;;;5.51;41.61;98446.66;10368382;28;20033;-54
2024/01/27 15:47:42;;;;;;;16.90;11.23;;;;;;;5.23;42.20;98382.31;10368721;28;20057;-54
2024/01/27 15:52:41;;;;;;;17.05;10.63;;;;;;;5.79;41.57;98457.78;10368440;28;20067;-56
2024/01/27 15:57:40;;;;;;;9.40;7.30;;;;;;;5.36;42.09;98419.56;10368677;28;20104;-56
2024/01/27 16:02:39;;;;;;;14.48;10.35;;;;;;;5.56;41.65;98475.13;10369270;28;20049;-56
2024/01/27 16:07:38;;;;;;;14.07;9.43;;;;;;;5.67;41.29;98483.16;10367885;28;20017;-56
2024/01/27 16:12:37;;;;;;;11.23;8.30;;;;;;;5.67;42.10;98525.25;10368706;28;20024;-56
2024/01/27 16:17:36;;;;;;;11.80;8.63;;;;;;;5.78;40.57;98504.94;10368197;28;20064;-56
2024/01/27 16:22:35;;;;;;;14.05;10.32;;;;;;;5.66;41.19;98496.88;10364019;28;20068;-56
2024/01/27 16:27:35;;;;;;;7.22;6.53;;;;;;;5.62;41.10;98508.75;10366326;28;20033;-56
2024/01/27 16:32:34;;;;;;;7.82;7.10;;;;;;;5.61;40.82;98526.75;10366829;28;20065;-56
2024/01/27 16:37:33;;;;;;;12.82;10.75;;;;;;;5.48;41.63;98492.88;10366943;28;20060;-56
2024/01/27 16:42:34;;;;;;;7.85;6.57;;;;;;;5.37;41.62;98535.44;10366088;28;20104;-56
2024/01/27 16:47:33;;;;;;;7.35;6.22;;;;;;;5.30;41.86;98506.06;10367152;28;20075;-56
2024/01/27 16:52:32;;;;;;;8.48;6.70;;;;;;;5.40;42.15;98535.53;10366845;28;20032;-56
2024/01/27 16:57:32;;;;;;;9.85;7.97;;;;;;;5.38;42.05;98554.34;10366791;28;20124;-55
2024/01/27 17:02:31;;;;;;;19.30;12.60;;;;;;;5.48;42.08;98517.75;10366212;28;20083;-57
2024/01/27 17:07:32;;;;;;;18.02;13.15;;;;;;;5.79;41.81;98553.06;10366081;28;20025;-56
2024/01/27 17:12:37;;;;;;;7.15;6.47;;;;;;;5.46;41.32;98552.88;10365502;28;20067;-57
2024/01/27 17:17:36;;;;;;;11.68;7.38;;;;;;;5.47;41.22;98568.38;10365604;28;20463;-55
2024/01/27 17:22:35;;;;;;;9.82;7.60;;;;;;;4.84;42.27;98485.66;10365105;28;20371;-56
2024/01/27 17:27:35;;;;;;;8.82;6.80;;;;;;;5.10;42.63;98536.28;10365492;28;20072;-57
2024/01/27 17:32:34;;;;;;;10.95;7.00;;;;;;;5.52;42.28;98566.81;10365742;28;20060;-56
2024/01/27 17:37:36;;;;;;;6.07;5.32;;;;;;;5.11;42.85;98563.78;10363884;28;20068;-56
2024/01/27 17:42:36;;;;;;;12.70;9.32;;;;;;;5.04;43.12;98559.25;10364542;28;20068;-56
2024/01/27 17:47:38;;;;;;;12.13;8.48;;;;;;;4.07;43.04;98427.34;10364537;28;20106;-56
2024/01/27 17:52:38;;;;;;;7.18;6.57;;;;;;;5.08;43.67;98591.94;10363089;28;20494;-56
2024/01/27 17:57:38;;;;;;;11.18;8.00;;;;;;;5.13;43.37;98556.97;10363579;28;20506;-56
2024/01/27 18:02:37;;;;;;;7.80;6.72;;;;;;;4.59;43.41;98550.78;10364259;28;20537;-57
2024/01/27 18:07:36;;;;;;;5.70;5.20;;;;;;;4.32;43.42;98553.25;10364041;28;20601;-55
2024/01/27 18:12:35;;;;;;;7.55;6.80;;;;;;;4.77;43.51;98583.97;10363750;28;20995;-57
2024/01/27 18:17:34;;;;;;;10.07;8.05;;;;;;;4.87;43.59;98583.47;10364509;28;20072;-57
2024/01/27 18:22:33;;;;;;;6.32;5.50;;;;;;;4.71;43.58;98576.91;10363461;28;20033;-57
2024/01/27 18:27:32;;;;;;;7.55;5.72;;;;;;;4.49;44.01;98570.13;10363392;28;20052;-56
2024/01/27 18:32:31;;;;;;;7.63;5.95;;;;;;;4.56;43.86;98599.50;10363703;28;20040;-56
2024/01/27 18:37:30;;;;;;;14.23;10.15;;;;;;;4.78;43.42;98573.72;10363231;28;20497;-55
2024/01/27 18:42:29;;;;;;;11.27;9.57;;;;;;;4.70;43.74;98601.75;10363536;28;20065;-55
2024/01/27 18:47:29;;;;;;;11.02;9.05;;;;;;;4.93;43.53;98612.84;10363519;28;20087;-56
2024/01/27 18:52:30;;;;;;;10.32;8.15;;;;;;;5.01;43.27;98613.13;10362909;28;20833;-57
2024/01/27 18:57:29;;;;;;;20.55;14.13;;;;;;;4.92;43.34;98603.41;10362589;28;20080;-56
2024/01/27 19:02:29;;;;;;;13.23;10.45;;;;;;;5.06;43.21;98619.34;10343742;28;20049;-57
2024/01/27 19:07:28;;;;;;;14.15;11.23;;;;;;;4.68;43.58;98549.41;10347595;28;20106;-57
2024/01/27 19:12:27;;;;;;;21.30;14.85;;;;;;;4.48;43.80;98524.72;10369587;28;20151;-56
2024/01/27 19:17:26;;;;;;;20.50;15.52;;;;;;;4.02;43.58;98421.16;10369105;28;20044;-57
2024/01/27 19:22:25;;;;;;;31.20;17.70;;;;;;;4.72;44.29;98522.97;10369595;28;20502;-56
2024/01/27 19:27:24;;;;;;;23.15;14.38;;;;;;;4.94;44.13;98554.59;10368968;28;20057;-55
2024/01/27 19:32:23;;;;;;;18.60;11.13;;;;;;;4.87;44.62;98557.75;10369494;28;20479;-57
2024/01/27 19:37:22;;;;;;;13.80;10.95;;;;;;;5.18;44.43;98623.13;10369992;28;20530;-55
2024/01/27 19:42:21;;;;;;;13.25;9.07;;;;;;;5.11;44.14;98633.25;10369359;28;20471;-56
2024/01/27 19:47:20;;;;;;;16.73;10.02;;;;;;;4.98;44.51;98641.34;10369262;28;20405;-56
2024/01/27 19:52:19;;;;;;;7.03;6.00;;;;;;;4.49;44.75;98608.69;10369109;28;20032;-56
2024/01/27 19:57:18;;;;;;;13.65;9.95;;;;;;;4.07;45.27;98585.72;10368838;28;20076;-56
2024/01/27 20:02:16;;;;;;;16.77;12.02;;;;;;;4.49;45.24;98658.38;10368301;28;20061;-56
2024/01/27 20:07:15;;;;;;;6.45;5.20;;;;;;;4.37;45.27;98574.84;10368331;28;20444;-56
2024/01/27 20:12:14;;;;;;;10.75;7.50;;;;;;;4.72;45.32;98663.50;10367840;28;20080;-56
2024/01/27 20:17:14;;;;;;;15.60;10.95;;;;;;;4.84;44.93;98630.53;10367609;28;20021;-56
2024/01/27 20:22:13;;;;;;;8.23;6.93;;;;;;;4.67;45.29;98631.63;10367983;28;20063;-57
2024/01/27 20:27:12;;;;;;;15.02;8.32;;;;;;;4.92;45.47;98653.94;10367893;28;20529;-55
2024/01/27 20:32:11;;;;;;;11.88;8.30;;;;;;;4.60;45.50;98609.09;10367244;28;20776;-55
2024/01/27 20:37:10;;;;;;;8.77;6.97;;;;;;;4.33;46.08;98603.81;10365543;28;20044;-55
2024/01/27 20:42:09;;;;;;;4.95;4.53;;;;;;;4.06;46.56;98610.53;10365736;28;20068;-56
2024/01/27 20:47:08;;;;;;;6.47;5.78;;;;;;;4.03;46.36;98601.81;10366073;28;20037;-56
2024/01/27 20:52:07;;;;;;;5.85;5.32;;;;;;;3.71;47.99;98611.72;10367106;28;20041;-56
2024/01/27 20:57:06;;;;;;;5.35;4.95;;;;;;;3.80;47.99;98645.47;10365931;28;20052;-56
2024/01/27 21:02:05;;;;;;;4.75;4.25;;;;;;;3.55;47.92;98578.56;10366362;28;20256;-55
2024/01/27 21:07:04;;;;;;;5.00;4.60;;;;;;;3.67;49.05;98601.28;10366814;28;20056;-56
2024/01/27 21:12:03;;;;;;;4.40;4.10;;;;;;;3.65;49.05;98611.47;10365656;28;20076;-56
2024/01/27 21:17:03;;;;;;;6.50;5.90;;;;;;;3.97;49.17;98629.84;10365478;28;20119;-54
2024/01/27 21:22:02;;;;;;;4.93;4.03;;;;;;;3.82;48.83;98641.25;10366290;28;20483;-55
2024/01/27 21:27:01;;;;;;;6.15;4.88;;;;;;;3.80;49.02;98603.47;10365413;28;20083;-56
2024/01/27 21:32:00;;;;;;;7.22;5.22;;;;;;;3.96;48.07;98612.66;10364465;28;20060;-55
2024/01/27 21:36:59;;;;;;;7.53;5.25;;;;;;;3.90;48.74;98648.41;10365332;28;20418;-55
2024/01/27 21:41:58;;;;;;;9.50;5.57;;;;;;;3.47;48.84;98601.31;10364753;28;20481;-55
2024/01/27 21:46:57;;;;;;;36.65;14.48;;;;;;;4.03;48.05;98673.72;10365323;28;20857;-56
2024/01/27 21:51:58;;;;;;;35.20;14.63;;;;;;;3.75;48.18;98618.72;10365099;28;20392;-56
2024/01/27 21:57:00;;;;;;;6.30;5.47;;;;;;;3.51;48.50;98661.34;10333643;28;20095;-56
2024/01/27 22:01:59;;;;;;;12.40;6.20;;;;;;;3.80;48.38;98696.81;10323103;28;20474;-56
2024/01/27 22:06:58;;;;;;;4.85;4.43;;;;;;;3.00;49.98;98620.75;10323732;28;20629;-56
2024/01/27 22:11:57;;;;;;;22.17;12.90;;;;;;;2.21;50.09;98467.00;10322876;28;20462;-55
2024/01/27 22:16:56;;;;;;;10.68;6.35;;;;;;;3.41;50.58;98642.16;10322703;28;20140;-55
2024/01/27 22:21:55;;;;;;;;;;;;;;;3.72;50.42;98687.91;10316461;28;20053;-55
2024/01/27 22:26:53;;;;;;;14.63;8.52;;;;;;;3.92;49.88;98686.16;10315882;28;19935;-55
2024/01/27 22:31:52;;;;;;;19.58;12.68;;;;;;;3.62;49.94;98619.03;10289873;28;20044;-56
2024/01/27 22:36:51;;;;;;;16.55;9.77;;;;;;;4.26;49.38;98683.19;10280107;28;20041;-56
2024/01/27 22:41:50;;;;;;;72.60;39.15;;;;;;;4.27;49.54;98684.97;10285803;28;20113;-55
2024/01/27 22:46:49;;;;;;;15.65;9.68;;;;;;;3.90;50.38;98692.03;10290445;28;20053;-55
2024/01/27 22:51:49;;;;;;;11.15;7.75;;;;;;;3.79;49.91;98648.81;10313960;28;20052;-55
2024/01/27 22:56:48;;;;;;;8.55;6.57;;;;;;;3.31;50.69;98646.03;10330482;28;20076;-55
2024/01/27 23:01:48;;;;;;;6.97;4.60;;;;;;;3.70;50.25;98697.22;10330203;28;20042;-55
2024/01/27 23:06:47;;;;;;;7.35;5.50;;;;;;;3.51;50.98;98694.72;10329072;28;20103;-55
2024/01/27 23:11:45;;;;;;;10.77;6.15;;;;;;;3.54;50.49;98664.03;10330331;28;20502;-55
2024/01/27 23:16:44;;;;;;;19.20;11.50;;;;;;;3.81;50.10;98675.44;10329392;28;20510;-55